createdAt,value
2023-01-07T00:02:24.806Z,36.95
2023-01-07T00:05:24.190Z,38.00
2023-01-07T00:07:51.660Z,36.95
2023-01-07T00:10:45.738Z,37.92
2023-01-07T00:13:19.321Z,36.55
2023-01-07T00:16:14.811Z,39.08
2023-01-07T00:22:15.585Z,37.15
2023-01-07T00:24:59.111Z,36.42
2023-01-07T00:32:10.171Z,36.78
2023-01-07T00:34:57.578Z,35.63
2023-01-07T00:37:43.563Z,38.30
2023-01-07T00:43:01.541Z,34.63
2023-01-07T00:45:36.148Z,36.63
2023-01-07T00:48:04.620Z,36.60
2023-01-07T00:50:35.756Z,35.97
2023-01-07T00:53:03.995Z,37.00
2023-01-07T00:55:32.417Z,37.33
2023-01-07T00:57:59.957Z,37.95
2023-01-07T01:00:27.300Z,34.95
2023-01-07T01:02:54.537Z,33.60
2023-01-07T01:05:22.571Z,34.90
2023-01-07T01:07:49.746Z,34.60
2023-01-07T01:10:20.182Z,34.17
2023-01-07T01:12:49.722Z,37.10
2023-01-07T01:15:17.752Z,39.53
2023-01-07T01:17:44.935Z,38.38
2023-01-07T01:20:16.364Z,39.45
2023-01-07T01:22:44.654Z,40.13
2023-01-07T01:25:13.313Z,38.05
2023-01-07T01:27:40.723Z,39.80
2023-01-07T01:30:08.862Z,39.97
2023-01-07T01:32:39.982Z,39.55
2023-01-07T01:35:08.163Z,40.35
2023-01-07T01:37:35.748Z,39.40
2023-01-07T01:40:06.713Z,35.13
2023-01-07T01:42:34.545Z,33.25
2023-01-07T01:45:05.632Z,33.05
2023-01-07T01:47:58.053Z,29.90
2023-01-07T01:50:43.377Z,30.70
2023-01-07T01:53:17.101Z,30.35
2023-01-07T01:56:20.274Z,30.83
2023-01-07T01:58:57.493Z,30.88
2023-01-07T02:01:25.165Z,31.52
2023-01-07T02:03:53.048Z,31.08
2023-01-07T02:06:27.454Z,31.35
2023-01-07T02:08:55.585Z,35.33
2023-01-07T02:11:48.770Z,37.63
2023-01-07T02:14:52.861Z,37.90
2023-01-07T02:17:56.451Z,34.70
2023-01-07T02:20:53.966Z,31.95
2023-01-07T02:24:33.833Z,29.35
2023-01-07T02:27:25.493Z,27.23
2023-01-07T02:30:19.906Z,23.88
2023-01-07T02:33:28.830Z,24.70
2023-01-07T02:36:08.279Z,24.85
2023-01-07T02:39:10.669Z,22.60
2023-01-07T02:42:23.579Z,21.70
2023-01-07T02:45:06.814Z,21.52
2023-01-07T02:47:47.859Z,20.27
2023-01-07T02:50:15.216Z,19.58
2023-01-07T02:52:42.577Z,17.35
2023-01-07T02:55:29.199Z,16.85
2023-01-07T02:58:27.313Z,16.20
2023-01-07T03:05:08.782Z,14.02
2023-01-07T03:08:38.827Z,14.73
2023-01-07T03:11:11.672Z,14.88
2023-01-07T03:14:00.949Z,13.93
2023-01-07T03:16:43.130Z,13.85
2023-01-07T03:19:19.152Z,14.07
2023-01-07T03:21:50.797Z,13.70
2023-01-07T03:24:20.151Z,16.80
2023-01-07T03:26:52.734Z,15.55
2023-01-07T03:29:21.313Z,14.15
2023-01-07T03:32:05.080Z,14.05
2023-01-07T03:34:34.297Z,13.82
2023-01-07T03:37:10.119Z,15.00
2023-01-07T03:39:40.333Z,14.88
2023-01-07T03:42:30.051Z,13.55
2023-01-07T03:44:58.730Z,18.02
2023-01-07T03:47:29.151Z,28.98
2023-01-07T03:49:56.580Z,35.63
2023-01-07T03:52:24.006Z,39.28
2023-01-07T03:54:52.140Z,38.40
2023-01-07T03:57:21.027Z,37.58
2023-01-07T03:59:48.239Z,36.38
2023-01-07T04:02:16.107Z,37.58
2023-01-07T04:04:44.015Z,39.47
2023-01-07T04:07:11.736Z,41.63
2023-01-07T04:09:39.155Z,37.75
2023-01-07T04:12:08.060Z,37.28
2023-01-07T04:14:35.538Z,38.67
2023-01-07T04:17:02.908Z,40.30
2023-01-07T04:19:30.414Z,40.58
2023-01-07T04:21:59.200Z,41.03
2023-01-07T04:24:26.595Z,39.00
2023-01-07T04:26:54.000Z,39.75
2023-01-07T04:29:21.658Z,39.10
2023-01-07T04:31:50.165Z,40.47
2023-01-07T04:34:17.677Z,40.88
2023-01-07T04:36:44.944Z,44.33
2023-01-07T04:39:12.911Z,42.47
2023-01-07T04:41:43.480Z,44.38
2023-01-07T04:44:11.341Z,43.92
2023-01-07T04:46:38.570Z,42.60
2023-01-07T04:49:05.845Z,45.33
2023-01-07T04:51:33.280Z,46.85
2023-01-07T04:54:01.148Z,43.90
2023-01-07T04:56:28.358Z,45.08
2023-01-07T04:58:55.765Z,45.17
2023-01-07T05:01:24.538Z,43.92
2023-01-07T05:03:51.858Z,45.63
2023-01-07T05:06:20.052Z,46.60
2023-01-07T05:08:48.424Z,44.17
2023-01-07T05:11:21.386Z,42.25
2023-01-07T05:13:51.067Z,43.05
2023-01-07T05:16:19.110Z,44.78
2023-01-07T05:18:46.437Z,42.08
2023-01-07T05:21:13.696Z,44.78
2023-01-07T05:23:41.029Z,43.40
2023-01-07T05:26:09.497Z,42.63
2023-01-07T05:28:36.743Z,44.03
2023-01-07T05:31:04.889Z,43.97
2023-01-07T05:33:33.638Z,45.17
2023-01-07T05:36:00.945Z,43.40
2023-01-07T05:38:28.624Z,44.78
2023-01-07T05:40:57.395Z,45.00
2023-01-07T05:43:26.679Z,43.70
2023-01-07T05:45:56.094Z,44.03
2023-01-07T05:48:23.588Z,43.75
2023-01-07T05:50:50.945Z,43.88
2023-01-07T05:53:18.378Z,41.72
2023-01-07T05:55:46.084Z,44.78
2023-01-07T05:58:13.537Z,43.22
2023-01-07T06:00:40.819Z,47.08
2023-01-07T06:03:08.282Z,45.03
2023-01-07T06:05:35.541Z,43.83
2023-01-07T06:08:02.942Z,44.70
2023-01-07T06:10:30.124Z,44.10
2023-01-07T06:12:57.297Z,44.03
2023-01-07T06:15:24.675Z,44.60
2023-01-07T06:17:51.979Z,41.60
2023-01-07T06:20:19.708Z,44.42
2023-01-07T06:22:46.952Z,37.10
2023-01-07T06:25:14.269Z,31.38
2023-01-07T06:27:41.560Z,31.60
2023-01-07T06:30:11.177Z,29.10
2023-01-07T06:32:44.022Z,28.20
2023-01-07T06:35:12.524Z,25.20
2023-01-07T06:37:40.375Z,24.77
2023-01-07T06:40:08.969Z,22.85
2023-01-07T06:42:36.180Z,22.10
2023-01-07T06:45:03.794Z,20.90
2023-01-07T06:47:31.109Z,21.30
2023-01-07T06:49:58.247Z,20.05
2023-01-07T06:52:25.503Z,20.40
2023-01-07T06:54:52.773Z,20.45
2023-01-07T06:57:20.096Z,20.42
2023-01-07T06:59:47.432Z,21.17
2023-01-07T07:02:25.655Z,21.75
2023-01-07T07:04:53.590Z,20.95
2023-01-07T07:07:21.917Z,20.20
2023-01-07T07:09:50.663Z,21.98
2023-01-07T07:12:19.409Z,22.90
2023-01-07T07:14:46.691Z,21.65
2023-01-07T07:17:13.939Z,21.40
2023-01-07T07:19:44.178Z,20.60
2023-01-07T07:22:11.583Z,21.27
2023-01-07T07:24:38.793Z,21.38
2023-01-07T07:27:06.066Z,20.83
2023-01-07T07:29:33.216Z,22.33
2023-01-07T07:32:00.482Z,20.50
2023-01-07T07:34:27.807Z,21.45
2023-01-07T07:36:54.911Z,19.73
2023-01-07T07:39:22.113Z,20.77
2023-01-07T07:41:49.387Z,21.73
2023-01-07T07:44:18.322Z,20.83
2023-01-07T07:46:45.715Z,19.75
2023-01-07T07:49:13.188Z,21.88
2023-01-07T07:51:40.473Z,20.13
2023-01-07T07:54:07.896Z,19.77
2023-01-07T07:56:35.130Z,20.60
2023-01-07T07:59:02.379Z,21.50
2023-01-07T08:01:29.615Z,19.63
2023-01-07T08:03:56.899Z,21.63
2023-01-07T08:06:24.150Z,21.00
2023-01-07T08:08:51.400Z,19.92
2023-01-07T08:11:18.583Z,19.55
2023-01-07T08:13:45.851Z,21.60
2023-01-07T08:16:13.125Z,21.00
2023-01-07T08:18:40.310Z,20.48
2023-01-07T08:21:07.466Z,19.58
2023-01-07T08:23:34.846Z,19.90
2023-01-07T08:26:03.774Z,19.15
2023-01-07T08:28:32.574Z,19.48
2023-01-07T08:31:06.116Z,19.02
2023-01-07T08:33:37.609Z,19.55
2023-01-07T08:36:22.197Z,19.35
2023-01-07T08:38:54.964Z,19.15
2023-01-07T08:41:24.045Z,20.80
2023-01-07T08:43:53.565Z,19.88
2023-01-07T08:46:20.985Z,20.90
2023-01-07T08:48:48.459Z,20.83
2023-01-07T08:51:15.795Z,20.05
2023-01-07T08:53:42.992Z,18.60
2023-01-07T08:56:10.360Z,19.48
2023-01-07T08:58:38.424Z,18.70
2023-01-07T09:01:07.699Z,20.05
2023-01-07T09:03:35.328Z,20.98
2023-01-07T09:06:02.620Z,20.67
2023-01-07T09:08:29.882Z,20.42
2023-01-07T09:10:57.183Z,21.58
2023-01-07T09:13:24.498Z,20.33
2023-01-07T09:15:53.014Z,19.23
2023-01-07T09:18:21.505Z,20.00
2023-01-07T09:20:48.787Z,20.42
2023-01-07T09:23:16.054Z,21.52
2023-01-07T09:25:43.334Z,19.70
2023-01-07T09:28:10.663Z,20.20
2023-01-07T09:30:37.803Z,20.90
2023-01-07T09:33:05.811Z,20.88
2023-01-07T09:35:33.287Z,21.52
2023-01-07T09:38:00.522Z,20.13
2023-01-07T09:40:36.645Z,20.85
2023-01-07T09:43:59.813Z,20.42
2023-01-07T09:46:18.162Z,21.08
2023-01-07T09:48:58.086Z,19.48
2023-01-07T09:51:38.565Z,20.98
2023-01-07T09:54:25.501Z,20.65
2023-01-07T09:56:52.766Z,21.35
2023-01-07T09:59:20.254Z,20.52
2023-01-07T10:02:18.950Z,19.83
2023-01-07T10:05:16.590Z,19.83
2023-01-07T10:09:12.375Z,20.23
2023-01-07T10:12:03.451Z,19.05
2023-01-07T10:15:01.323Z,19.75
2023-01-07T10:18:12.392Z,19.77
2023-01-07T10:21:14.389Z,20.65
2023-01-07T10:23:49.755Z,20.98
2023-01-07T10:26:42.925Z,20.90
2023-01-07T10:29:20.881Z,22.45
2023-01-07T10:31:50.055Z,21.02
2023-01-07T10:34:25.284Z,19.85
2023-01-07T10:37:14.342Z,21.13
2023-01-07T10:40:24.868Z,21.02
2023-01-07T10:43:54.150Z,22.77
2023-01-07T10:47:07.738Z,21.23
2023-01-07T10:50:12.944Z,19.50
2023-01-07T10:53:14.146Z,21.13
2023-01-07T10:56:00.770Z,22.45
2023-01-07T10:58:43.505Z,21.70
2023-01-07T11:01:30.049Z,22.52
2023-01-07T11:03:59.892Z,21.70
2023-01-07T11:06:58.640Z,21.50
2023-01-07T11:09:44.163Z,21.58
2023-01-07T11:13:22.861Z,20.48
2023-01-07T11:16:18.422Z,24.05
2023-01-07T11:19:02.071Z,22.33
2023-01-07T11:21:45.001Z,21.65
2023-01-07T11:24:31.149Z,21.95
2023-01-07T11:29:46.062Z,22.13
2023-01-07T11:32:27.255Z,20.65
2023-01-07T11:35:05.851Z,22.02
2023-01-07T11:37:47.906Z,21.75
2023-01-07T11:40:16.016Z,19.63
2023-01-07T11:42:57.289Z,20.50
2023-01-07T11:45:28.078Z,19.08
2023-01-07T11:48:06.066Z,18.60
2023-01-07T11:51:02.385Z,17.67
2023-01-07T11:53:38.552Z,18.00
2023-01-07T11:56:21.104Z,17.60
2023-01-07T11:59:20.127Z,15.82
2023-01-07T12:01:50.685Z,18.45
2023-01-07T12:04:36.267Z,17.13
2023-01-07T12:07:15.408Z,15.85
2023-01-07T12:09:45.624Z,17.80
2023-01-07T12:12:37.151Z,18.65
2023-01-07T12:15:23.915Z,17.73
2023-01-07T12:18:29.410Z,19.23
2023-01-07T12:21:26.211Z,19.27
2023-01-07T12:24:14.357Z,19.75
2023-01-07T12:27:06.331Z,19.48
2023-01-07T12:30:44.005Z,19.63
2023-01-07T12:34:05.356Z,19.20
2023-01-07T12:37:15.621Z,21.30
2023-01-07T12:39:45.606Z,21.23
2023-01-07T12:42:30.200Z,24.00
2023-01-07T12:45:05.633Z,22.90
2023-01-07T12:47:40.355Z,23.17
2023-01-07T12:50:29.644Z,21.98
2023-01-07T12:53:16.406Z,22.70
2023-01-07T12:55:58.621Z,22.25
2023-01-07T12:58:40.253Z,22.77
2023-01-07T13:01:54.814Z,21.98
2023-01-07T13:04:35.691Z,22.30
2023-01-07T13:07:24.015Z,20.17
2023-01-07T13:10:01.574Z,20.80
2023-01-07T13:12:44.038Z,21.90
2023-01-07T13:15:23.608Z,21.95
2023-01-07T13:17:56.942Z,22.80
2023-01-07T13:21:01.484Z,21.88
2023-01-07T13:24:08.535Z,21.45
2023-01-07T13:30:24.069Z,19.50
2023-01-07T13:33:07.678Z,20.02
2023-01-07T13:35:52.139Z,20.30
2023-01-07T13:39:18.460Z,21.80
2023-01-07T13:42:03.821Z,19.83
2023-01-07T13:45:13.987Z,23.23
2023-01-07T13:47:59.951Z,21.38
2023-01-07T13:50:42.417Z,23.58
2023-01-07T13:53:15.562Z,21.73
2023-01-07T13:55:46.097Z,23.52
2023-01-07T13:58:31.668Z,23.45
2023-01-07T14:01:08.529Z,22.67
2023-01-07T14:03:49.771Z,22.25
2023-01-07T14:06:44.726Z,22.13
2023-01-07T14:09:25.847Z,21.27
2023-01-07T14:12:13.915Z,21.60
2023-01-07T14:15:27.153Z,21.35
2023-01-07T14:18:32.279Z,22.02
2023-01-07T14:21:29.979Z,21.75
2023-01-07T14:24:44.887Z,23.30
2023-01-07T14:27:50.376Z,20.65
2023-01-07T14:30:36.484Z,22.98
2023-01-07T14:35:38.345Z,23.02
2023-01-07T14:38:30.302Z,21.02
2023-01-07T14:41:17.560Z,21.55
2023-01-07T14:44:00.140Z,22.95
2023-01-07T14:46:27.234Z,23.67
2023-01-07T14:49:03.217Z,22.95
2023-01-07T14:52:25.664Z,24.23
2023-01-07T14:55:24.178Z,24.65
2023-01-07T14:58:12.339Z,23.38
2023-01-07T15:01:17.027Z,23.45
2023-01-07T15:04:26.874Z,22.90
2023-01-07T15:06:59.550Z,23.88
2023-01-07T15:10:02.322Z,24.75
2023-01-07T15:12:53.563Z,23.60
2023-01-07T15:15:47.652Z,22.33
2023-01-07T15:18:16.037Z,22.50
2023-01-07T15:21:19.068Z,22.52
2023-01-07T15:24:26.404Z,23.02
2023-01-07T15:27:44.602Z,22.83
2023-01-07T15:30:35.942Z,22.45
2023-01-07T15:34:21.967Z,23.65
2023-01-07T15:36:52.244Z,23.98
2023-01-07T15:39:40.949Z,23.13
2023-01-07T15:42:23.291Z,24.33
2023-01-07T15:44:57.237Z,24.17
2023-01-07T15:47:41.234Z,24.20
2023-01-07T15:50:31.512Z,24.30
2023-01-07T15:53:10.997Z,24.52
2023-01-07T15:55:49.278Z,24.08
2023-01-07T15:58:44.865Z,26.80
2023-01-07T16:01:21.839Z,24.83
2023-01-07T16:03:55.741Z,23.73
2023-01-07T16:06:31.903Z,24.77
2023-01-07T16:09:04.390Z,26.35
2023-01-07T16:11:32.162Z,25.50
2023-01-07T16:14:04.472Z,24.95
2023-01-07T16:16:32.765Z,27.02
2023-01-07T16:19:02.942Z,26.33
2023-01-07T16:21:48.949Z,26.60
2023-01-07T16:24:16.782Z,27.13
2023-01-07T16:26:51.215Z,26.88
2023-01-07T16:29:36.729Z,25.80
2023-01-07T16:32:07.252Z,26.73
2023-01-07T16:34:34.218Z,27.27
2023-01-07T16:37:06.101Z,27.63
2023-01-07T16:39:43.729Z,27.88
2023-01-07T16:42:20.795Z,28.73
2023-01-07T16:44:49.497Z,29.30
2023-01-07T16:47:26.322Z,30.88
2023-01-07T16:49:57.960Z,30.30
2023-01-07T16:52:34.617Z,31.92
2023-01-07T16:55:01.852Z,30.70
2023-01-07T16:57:41.596Z,29.60
2023-01-07T17:00:27.220Z,30.75
2023-01-07T17:03:00.655Z,32.28
2023-01-07T17:05:31.895Z,30.50
2023-01-07T17:08:18.527Z,30.48
2023-01-07T17:11:15.123Z,30.65
2023-01-07T17:13:44.076Z,28.48
2023-01-07T17:16:33.726Z,29.17
2023-01-07T17:19:28.136Z,29.23
2023-01-07T17:21:56.613Z,30.23
2023-01-07T17:24:29.688Z,30.42
2023-01-07T17:27:02.568Z,30.23
2023-01-07T17:29:39.316Z,32.28
2023-01-07T17:32:06.831Z,30.02
2023-01-07T17:34:34.067Z,30.05
2023-01-07T17:37:01.208Z,30.85
2023-01-07T17:39:28.367Z,31.88
2023-01-07T17:42:14.812Z,31.05
2023-01-07T17:44:42.159Z,30.55
2023-01-07T17:47:11.497Z,28.50
2023-01-07T17:49:38.697Z,29.33
2023-01-07T17:52:06.119Z,30.83
2023-01-07T17:54:33.258Z,31.95
2023-01-07T17:57:00.432Z,32.40
2023-01-07T17:59:30.315Z,32.05
2023-01-07T18:01:59.120Z,31.67
2023-01-07T18:04:26.489Z,31.52
2023-01-07T18:06:53.774Z,32.95
2023-01-07T18:09:21.090Z,33.85
2023-01-07T18:12:06.809Z,32.17
2023-01-07T18:14:34.144Z,31.52
2023-01-07T18:17:01.466Z,33.15
2023-01-07T18:19:28.691Z,32.60
2023-01-07T18:21:55.900Z,33.27
2023-01-07T18:24:23.186Z,32.70
2023-01-07T18:26:50.358Z,32.67
2023-01-07T18:29:17.645Z,32.70
2023-01-07T18:31:45.978Z,31.13
2023-01-07T18:34:15.397Z,35.13
2023-01-07T18:36:43.103Z,33.75
2023-01-07T18:39:19.616Z,32.45
2023-01-07T18:41:50.058Z,33.60
2023-01-07T18:44:20.119Z,31.08
2023-01-07T18:46:47.654Z,32.00
2023-01-07T18:49:14.969Z,32.58
2023-01-07T18:51:42.312Z,33.67
2023-01-07T18:54:09.540Z,35.97
2023-01-07T18:56:36.777Z,33.88
2023-01-07T18:59:04.849Z,34.97
2023-01-07T19:01:32.496Z,35.35
2023-01-07T19:03:59.817Z,36.15
2023-01-07T19:06:27.191Z,36.53
2023-01-07T19:08:56.396Z,36.70
2023-01-07T19:11:23.704Z,36.78
2023-01-07T19:13:51.012Z,36.38
2023-01-07T19:16:18.286Z,35.80
2023-01-07T19:18:45.581Z,36.92
2023-01-07T19:21:13.121Z,34.88
2023-01-07T19:23:40.488Z,37.45
2023-01-07T19:26:11.078Z,37.50
2023-01-07T19:28:38.341Z,38.92
2023-01-07T19:31:09.071Z,37.85
2023-01-07T19:33:36.989Z,34.08
2023-01-07T19:36:11.546Z,37.47
2023-01-07T19:38:45.229Z,36.83
2023-01-07T19:41:19.753Z,35.65
2023-01-07T19:43:47.553Z,35.63
2023-01-07T19:46:15.838Z,36.20
2023-01-07T19:48:43.710Z,36.80
2023-01-07T19:51:11.186Z,37.30
2023-01-07T19:53:38.883Z,36.28
2023-01-07T19:56:12.165Z,37.92
2023-01-07T19:58:41.742Z,35.00
2023-01-07T20:01:18.176Z,35.90
2023-01-07T20:03:45.788Z,39.85
2023-01-07T20:06:16.920Z,39.35
2023-01-07T20:08:45.353Z,38.72
2023-01-07T20:11:13.435Z,39.92
2023-01-07T20:13:43.715Z,37.90
2023-01-07T20:16:18.533Z,39.08
2023-01-07T20:18:52.450Z,39.13
2023-01-07T20:21:25.790Z,39.00
2023-01-07T20:23:54.288Z,37.17
2023-01-07T20:26:26.358Z,40.40
2023-01-07T20:28:54.036Z,38.13
2023-01-07T20:31:24.125Z,39.42
2023-01-07T20:33:52.119Z,39.42
2023-01-07T20:36:23.861Z,40.20
2023-01-07T20:38:51.799Z,38.17
2023-01-07T20:41:26.834Z,40.80
2023-01-07T20:43:58.328Z,37.45
2023-01-07T20:46:28.362Z,38.15
2023-01-07T20:48:57.117Z,39.05
2023-01-07T20:51:24.571Z,38.13
2023-01-07T20:53:52.202Z,39.08
2023-01-07T20:56:24.077Z,39.78
2023-01-07T20:58:51.914Z,41.05
2023-01-07T21:01:21.644Z,40.08
2023-01-07T21:03:49.570Z,43.38
2023-01-07T21:06:20.453Z,41.53
2023-01-07T21:08:49.768Z,40.75
2023-01-07T21:11:21.434Z,40.10
2023-01-07T21:13:50.809Z,40.00
2023-01-07T21:16:18.984Z,42.75
2023-01-07T21:18:46.969Z,44.42
2023-01-07T21:21:20.273Z,42.40
2023-01-07T21:23:48.603Z,42.25
2023-01-07T21:26:17.866Z,44.38
2023-01-07T21:28:45.586Z,43.10
2023-01-07T21:31:16.095Z,42.47
2023-01-07T21:33:44.273Z,45.75
2023-01-07T21:36:18.288Z,41.38
2023-01-07T21:38:47.210Z,42.15
2023-01-07T21:41:17.270Z,44.42
2023-01-07T21:43:44.730Z,42.53
2023-01-07T21:46:12.833Z,43.10
2023-01-07T21:48:46.428Z,41.72
2023-01-07T21:51:25.242Z,43.90
2023-01-07T21:53:55.891Z,44.33
2023-01-07T21:56:27.749Z,41.63
2023-01-07T21:58:55.113Z,43.40
2023-01-07T22:01:28.160Z,44.03
2023-01-07T22:03:58.612Z,42.83
2023-01-07T22:06:30.399Z,45.65
2023-01-07T22:09:05.408Z,43.65
2023-01-07T22:11:35.563Z,45.67
2023-01-07T22:14:02.868Z,44.33
2023-01-07T22:16:32.132Z,42.13
2023-01-07T22:19:00.171Z,42.83
2023-01-07T22:21:27.685Z,41.95
2023-01-07T22:23:56.149Z,42.67
2023-01-07T22:26:24.146Z,44.45
2023-01-07T22:29:01.790Z,41.03
2023-01-07T22:31:36.358Z,40.85
2023-01-07T22:34:08.464Z,39.00
2023-01-07T22:36:54.496Z,35.78
2023-01-07T22:39:58.821Z,36.47
2023-01-07T22:42:43.721Z,39.53
2023-01-07T22:45:18.289Z,43.20
2023-01-07T22:47:50.077Z,42.63
2023-01-07T22:50:18.565Z,40.80
2023-01-07T22:52:46.168Z,41.13
2023-01-07T22:55:13.771Z,43.67
2023-01-07T22:57:41.916Z,44.47
2023-01-07T23:00:38.844Z,44.83
2023-01-07T23:03:06.430Z,45.08
2023-01-07T23:05:35.752Z,43.40
2023-01-07T23:08:03.320Z,46.20
2023-01-07T23:10:30.605Z,43.80
2023-01-07T23:12:57.917Z,42.80
2023-01-07T23:15:25.318Z,44.38
2023-01-07T23:17:52.502Z,44.80
2023-01-07T23:20:19.683Z,49.13
2023-01-07T23:22:47.248Z,47.83
2023-01-07T23:25:14.634Z,47.20
2023-01-07T23:27:42.048Z,46.97
2023-01-07T23:30:10.640Z,45.53
2023-01-07T23:32:37.883Z,43.97
2023-01-07T23:35:06.002Z,43.60
2023-01-07T23:37:33.380Z,46.78
2023-01-07T23:40:00.535Z,48.72
2023-01-07T23:42:27.792Z,46.42
2023-01-07T23:44:55.234Z,46.10
2023-01-07T23:47:23.534Z,44.78
2023-01-07T23:49:50.783Z,48.05
2023-01-07T23:52:19.145Z,49.88
2023-01-07T23:54:46.450Z,46.65
2023-01-07T23:57:13.783Z,47.95
2023-01-07T23:59:42.035Z,48.85
